Latest Coastal Weather Observations for Montague Island

IDN60701

Issued at 12:32 am EDT Saturday 27 December 2014 (issued every 10 minutes, with the page automatically refreshed every 10 minutes)

About coastal observations | Map of coastal stations | Coastal observations for NSW | Marine services | Other Formats
Station Details ID: 069017 Name: MONTAGUE ISLAND LIGHTHOUSE Lat: -36.25 Lon: 150.23 Height: 52.0 m
Data from the previous 72 hours. | See also: Recent months at Montague Island
Date/Time
EDT
Temp

°C
Wind Pressure Rain
since 9am
mm
Weather Cloud Vis
km
Sea
Height
m
Swell
Dir
 
Speed
knots
Gust
knots
hPa Trend Height
m
Period
s
Dir
27/12:30am 16.1 SSW 14 18 1020.1 - 0.0 - - - - - - -
 
Date/Time
EDT
Temp

°C
Wind Pressure Rain
since 9am
mm
Weather Cloud Vis
km
Sea
Height
m
Swell
Dir
 
Speed
knots
Gust
knots
hPa Trend Height
m
Period
s
Dir
26/11:30pm 16.5 S 21 27 1018.9 - 0.0 - - - - - - -
26/11:00pm 16.8 S 21 27 1018.6 - 0.0 - - - - - - -
26/10:30pm 17.0 S 21 24 1018.5 - 0.0 - - - - - - -
26/10:00pm 17.2 S 21 27 1018.1 - 0.0 - - - - - - -
26/09:30pm 17.6 S 21 25 1017.4 - 0.0 - - - - - - -
26/09:00pm 17.8 S 21 26 1016.9 - 0.0 - - - - - - -
26/08:30pm 17.9 SSE 23 28 1016.2 - 0.0 - - - - - - -
26/08:00pm 18.1 SSE 25 31 1015.3 - 0.0 - - - - - - -
26/07:30pm 18.3 SSE 29 34 1014.5 - 0.0 - - - - - - -
26/07:00pm 18.3 SSE 29 33 1013.8 - 0.0 - - - - - - -
26/06:30pm 18.4 SSE 30 34 1013.1 - 0.0 - - - - - - -
26/06:00pm 19.0 SSE 28 33 1012.6 - 0.0 - - - - - - -
26/05:30pm 19.4 SSE 29 34 1012.4 - 0.0 - - - - - - -
26/05:00pm 19.4 SSE 29 33 1012.3 - 0.0 - - - - - - -
26/04:30pm 19.5 SSE 27 32 1012.0 - 0.0 - - - - - - -
26/04:00pm 20.0 SSE 25 30 1011.8 - 0.0 - - - - - - -
26/03:30pm 20.7 S 27 32 1011.3 - 0.0 - - - - - - -
26/03:00pm 20.4 S 23 33 1011.0 - 0.0 - - - - - - -
26/02:30pm 19.9 SSE 24 30 1011.1 - 0.0 - - - - - - -
26/02:00pm 19.9 SSE 23 27 1011.0 - 0.0 - - - - - - -
26/01:30pm 19.1 SSE 22 26 1011.0 - 0.0 - - - - - - -
26/01:00pm 20.3 S 22 28 1010.7 - 0.0 - - - - - - -
26/12:30pm 20.0 S 21 28 1010.5 - 0.0 - - - - - - -
26/12:00pm 18.8 SSW 24 29 1010.0 - 0.0 - - - - - - -
26/11:30am 18.4 S 26 32 1009.6 - 0.0 - - - - - - -
26/11:00am 17.8 S 29 36 1009.0 - 0.0 - - - - - - -
26/10:30am 17.9 S 31 37 1008.9 - 0.0 - - - - - - -
26/10:00am 18.0 S 29 37 1008.8 - 0.0 - - - - - - -
26/09:30am 18.5 S 28 34 1008.6 - 0.0 - - - - - - -
26/09:20am 18.9 S 23 33 1008.7 - 0.0 - - - - - - -
26/09:00am 19.4 S 18 23 1008.4 - 6.0 - - - - - - -
26/08:30am 19.2 S 15 19 1008.3 - 6.0 - - - - - - -
26/08:00am 18.8 S 19 23 1008.1 - 6.0 - - - - - - -
26/07:30am 17.7 SSW 11 17 1007.6 - 6.0 - - - - - - -
26/07:00am 17.4 SSW 15 19 1006.9 - 6.0 - - - - - - -
26/06:30am 16.8 SSW 9 13 1006.3 - 6.0 - - - - - - -
26/06:00am 16.7 SSW 11 13 1005.8 - 6.0 - - - - - - -
26/05:30am 16.5 SSW 13 16 1005.6 - 6.0 - - - - - - -
26/05:00am 16.5 SSW 13 16 1005.2 - 6.0 - - - - - - -
26/04:30am 16.4 SSW 13 16 1004.9 - 6.0 - - - - - - -
26/04:00am 16.3 SSW 17 19 1004.5 - 6.0 - - - - - - -
26/03:30am 16.4 SSW 16 22 1004.9 - 6.0 - - - - - - -
26/03:00am 16.6 SSW 16 21 1005.2 - 6.0 - - - - - - -
26/02:30am 16.8 SSW 16 20 1005.5 - 6.0 - - - - - - -
26/02:00am 16.9 SSW 15 20 1005.5 - 6.0 - - - - - - -
26/01:30am 17.1 SSW 17 21 1005.4 - 6.0 - - - - - - -
26/01:00am 17.4 S 16 19 1005.5 - 6.0 - - - - - - -
26/12:30am 17.6 S 13 18 1005.9 - 6.0 - - - - - - -
26/12:00am 18.1 S 13 17 1006.1 - 6.0 - - - - - - -
 
Date/Time
EDT
Temp

°C
Wind Pressure Rain
since 9am
mm
Weather Cloud Vis
km
Sea
Height
m
Swell
Dir
 
Speed
knots
Gust
knots
hPa Trend Height
m
Period
s
Dir
25/11:30pm 18.2 NW 11 20 1005.7 - 6.0 - - - - - - -
25/11:00pm 19.3 N 19 26 1004.9 - 6.0 - - - - - - -
25/10:30pm 19.3 N 17 23 1005.4 - 6.0 - - - - - - -
25/10:00pm 19.4 N 16 20 1005.7 - 6.0 - - - - - - -
25/09:30pm 19.5 N 20 27 1005.4 - 6.0 - - - - - - -
25/09:00pm 19.1 NNE 22 26 1005.3 - 6.0 Recent precip. - - - - - -
25/08:30pm 19.1 N 24 30 1005.6 - 6.0 - - - - - - -
25/08:00pm 19.5 N 25 31 1005.8 - 4.6 - - - - - - -
25/07:30pm 20.0 NNE 32 37 1006.1 - 3.2 - - - - - - -
25/07:22pm 20.2 N 26 37 1006.1 - 3.2 - - - - - - -
25/07:15pm 19.7 N 20 31 1006.2 - 3.0 - - - - - - -
25/07:00pm 19.7 N 19 24 1006.3 - 3.0 - - - - - - -
25/06:30pm 19.5 N 16 18 1005.5 - 3.0 - - - - - - -
25/06:08pm 19.7 NW 21 28 1005.3 - 1.0 - - - - - - -
25/06:00pm 19.1 NW 15 23 1005.1 - 0.0 - - - - - - -
25/05:30pm 20.3 NNW 15 19 1004.4 - 0.0 - - - - - - -
25/05:00pm 20.5 N 17 21 1004.8 - 0.0 - - - - - - -
25/04:30pm 21.1 NNE 27 33 1005.4 - 0.0 - - - - - - -
25/04:00pm 21.3 NNE 21 25 1006.3 - 0.0 - - - - - - -
25/03:30pm 21.3 NNE 13 16 1005.4 - 0.0 - - - - - - -
25/03:00pm 21.3 NNE 13 17 1005.7 - 0.0 - - - - - - -
25/02:30pm 21.7 N 12 15 1005.9 - 0.0 - - - - - - -
25/02:00pm 21.2 NNE 13 16 1005.9 - 0.0 - - - - - - -
25/01:30pm 20.5 NNE 16 19 1006.3 - 0.0 - - - - - - -
25/01:00pm 20.8 NNE 17 20 1006.8 - 0.0 - - - - - - -
25/12:30pm 21.3 NNE 17 22 1007.0 - 0.0 - - - - - - -
25/12:00pm 21.7 NNE 16 20 1007.2 - 0.0 - - - - - - -
25/11:30am 20.9 NNE 19 22 1007.7 - 0.0 - - - - - - -
25/11:00am 21.0 NNE 19 22 1008.2 - 0.0 - - - - - - -
25/10:30am 20.7 NNE 20 23 1008.4 - 0.0 - - - - - - -
25/10:00am 20.3 NNE 20 26 1008.7 - 0.0 - - - - - - -
25/09:30am 20.1 NNE 21 26 1009.0 - 0.0 - - - - - - -
25/09:00am 20.2 N 14 20 1009.5 - 0.2 - - - - - - -
25/08:30am 19.9 N 16 20 1009.6 - 0.2 - - - - - - -
25/08:00am 19.7 N 14 19 1009.7 - 0.2 - - - - - - -
25/07:30am 19.1 N 14 18 1009.5 - 0.2 - - - - - - -
25/07:00am 18.7 N 16 20 1009.7 - 0.2 - - - - - - -
25/06:30am 18.3 NNE 16 19 1009.5 - 0.2 - - - - - - -
25/06:00am 18.1 NNE 16 19 1009.5 - 0.2 - - - - - - -
25/05:30am 18.0 NNE 16 18 1009.6 - 0.2 - - - - - - -
25/05:00am 17.8 N 12 15 1009.9 - 0.2 - - - - - - -
25/04:30am 17.7 N 8 10 1010.0 - 0.2 - - - - - - -
25/04:00am 17.6 N 8 10 1009.9 - 0.2 - - - - - - -
25/03:30am 17.5 N 7 9 1010.2 - 0.2 - - - - - - -
25/03:00am 17.5 N 7 9 1010.8 - 0.2 - - - - - - -
25/02:30am 17.7 N 7 8 1011.5 - 0.2 - - - - - - -
25/02:00am 17.8 N 8 9 1012.3 - 0.2 - - - - - - -
25/01:30am 17.9 N 6 8 1012.9 - 0.2 - - - - - - -
25/01:00am 17.7 NNW 6 8 1013.3 - 0.2 - - - - - - -
25/12:30am 17.8 NW 6 8 1013.9 - 0.2 - - - - - - -
25/12:00am 18.0 NW 4 5 1014.4 - 0.2 - - - - - - -
 
Date/Time
EDT
Temp

°C
Wind Pressure Rain
since 9am
mm
Weather Cloud Vis
km
Sea
Height
m
Swell
Dir
 
Speed
knots
Gust
knots
hPa Trend Height
m
Period
s
Dir
24/11:30pm 18.1 WNW 4 5 1014.6 - 0.2 - - - - - - -
24/11:00pm 17.9 NW 2 3 1015.0 - 0.2 - - - - - - -
24/10:30pm 18.1 W 5 6 1015.3 - 0.2 - - - - - - -
24/10:00pm 18.2 SE 2 3 1015.2 - 0.2 - - - - - - -
24/09:30pm 18.4 S 1 3 1015.3 - 0.2 - - - - - - -
24/09:00pm 18.5 SSE 2 3 1015.0 - 0.2 - - - - - - -
24/08:30pm 18.4 SW 4 6 1015.1 - 0.2 - - - - - - -
24/08:00pm 18.7 SSW 3 5 1015.0 - 0.2 - - - - - - -
24/07:30pm 19.3 S 4 5 1014.7 - 0.2 - - - - - - -
24/07:00pm 18.9 SE 4 5 1014.5 - 0.2 - - - - - - -
24/06:30pm 19.0 ESE 4 5 1014.5 - 0.2 - - - - - - -
24/06:00pm 18.9 ESE 5 6 1014.4 - 0.2 - - - - - - -
24/05:30pm 19.3 ESE 5 7 1014.4 - 0.2 - - - - - - -
24/05:00pm 19.3 ESE 8 10 1014.4 - 0.2 - - - - - - -
24/04:30pm 19.4 SE 8 11 1014.6 - 0.2 - - - - - - -
24/04:00pm 19.7 SE 7 9 1014.9 - 0.2 - - - - - - -
24/03:30pm 19.7 SSE 7 9 1015.2 - 0.2 - - - - - - -
24/03:00pm 19.5 SSE 6 9 1015.3 - 0.2 - - - - - - -
24/02:30pm 20.1 S 7 10 1015.4 - 0.2 - - - - - - -
24/02:00pm 19.9 SSE 7 11 1015.6 - 0.2 - - - - - - -
24/01:30pm 19.8 S 8 10 1015.6 - 0.2 - - - - - - -
24/01:00pm 19.1 S 9 12 1015.7 - 0.2 - - - - - - -
24/12:30pm 18.1 SW 10 12 1015.9 - 0.2 - - - - - - -
24/12:00pm 18.4 SSW 9 13 1015.9 - 0.2 - - - - - - -
24/11:30am 17.5 SSW 13 17 1015.9 - 0.2 - - - - - - -
24/11:00am 17.8 SSW 13 17 1015.9 - 0.2 - - - - - - -
24/10:30am 17.1 S 15 18 1015.7 - 0.2 - - - - - - -
24/10:00am 16.7 S 15 18 1015.9 - 0.2 - - - - - - -
24/09:30am 16.6 S 17 20 1015.7 - 0.0 - - - - - - -
24/09:00am 16.8 S 18 22 1015.6 - 4.0 Recent precip. - - - - - -
24/08:30am 16.9 S 14 17 1015.6 - 4.0 - - - - - - -
24/08:00am 17.0 SSW 16 20 1015.4 - 3.6 - - - - - - -
24/07:30am 17.4 S 19 23 1014.4 - 3.4 - - - - - - -
24/07:00am 17.6 SSE 21 26 1013.9 - 3.4 - - - - - - -
24/06:30am 17.8 SSE 23 26 1013.4 - 3.4 - - - - - - -
24/06:00am 17.8 SSE 23 25 1013.1 - 3.4 - - - - - - -
24/05:30am 17.9 SSE 19 22 1012.9 - 3.4 - - - - - - -
24/05:00am 17.9 SSE 20 23 1012.4 - 3.4 - - - - - - -
24/04:30am 18.4 SSE 18 21 1012.4 - 3.0 - - - - - - -
24/04:00am 18.6 SE 15 17 1012.3 - 3.0 - - - - - - -
24/03:30am 18.7 SE 13 16 1012.0 - 3.0 - - - - - - -
24/03:00am 18.9 SSE 16 19 1011.8 - 3.0 - - - - - - -
24/02:30am 18.9 SSE 22 25 1011.4 - 3.0 - - - - - - -
24/02:00am 19.2 SSE 20 25 1011.5 - 3.0 - - - - - - -
24/01:47am 19.3 SSE 23 28 1011.2 - 3.0 - - - - - - -
24/01:30am 19.4 S 22 25 1011.0 - 3.0 - - - - - - -
24/01:00am 18.9 SSW 14 18 1011.1 - 3.0 - - - - - - -

Other Formats:

Comma delimited format used in spreadsheet applications
http://www.bom.gov.au/fwo/IDN60701/IDN60701.94939.axf

JavaScript Object Notation format (JSON) in row-major order
http://www.bom.gov.au/fwo/IDN60701/IDN60701.94939.json